createdAt,value
2018-01-20T00:00:56.139Z,16.53
2018-01-20T00:03:24.285Z,18.60
2018-01-20T00:05:57.076Z,17.27
2018-01-20T00:08:25.220Z,18.30
2018-01-20T00:11:08.061Z,15.17
2018-01-20T00:13:36.814Z,14.10
2018-01-20T00:16:09.693Z,17.40
2018-01-20T00:18:37.819Z,15.30
2018-01-20T00:21:09.259Z,17.63
2018-01-20T00:23:38.144Z,17.43
2018-01-20T00:26:25.917Z,17.67
2018-01-20T00:28:55.012Z,14.90
2018-01-20T00:31:23.162Z,17.53
2018-01-20T00:33:51.268Z,16.37
2018-01-20T00:36:24.894Z,16.83
2018-01-20T00:38:54.770Z,16.30
2018-01-20T00:41:41.929Z,14.07
2018-01-20T00:44:11.844Z,16.80
2018-01-20T00:46:54.486Z,18.50
2018-01-20T00:49:22.614Z,14.57
2018-01-20T00:51:56.525Z,20.13
2018-01-20T00:54:25.407Z,16.83
2018-01-20T00:57:05.008Z,15.03
2018-01-20T00:59:34.040Z,18.07
2018-01-20T01:02:08.150Z,14.80
2018-01-20T01:04:36.265Z,14.23
2018-01-20T01:07:07.780Z,15.70
2018-01-20T01:09:35.904Z,14.53
2018-01-20T01:12:20.964Z,17.97
2018-01-20T01:14:53.267Z,17.00
2018-01-20T01:17:28.683Z,14.27
2018-01-20T01:19:58.744Z,14.17
2018-01-20T01:22:39.283Z,21.03
2018-01-20T01:25:08.181Z,13.33
2018-01-20T01:27:38.065Z,12.63
2018-01-20T01:30:07.156Z,16.57
2018-01-20T01:32:42.373Z,10.70
2018-01-20T01:35:10.480Z,12.13
2018-01-20T01:37:38.793Z,12.93
2018-01-20T01:40:17.782Z,11.70
2018-01-20T01:42:58.580Z,12.97
2018-01-20T01:45:26.731Z,15.00
2018-01-20T01:48:06.087Z,11.90
2018-01-20T01:50:34.208Z,15.80
2018-01-20T01:53:02.332Z,16.37
2018-01-20T01:55:30.428Z,18.43
2018-01-20T01:58:00.537Z,21.10
2018-01-20T02:00:30.666Z,19.30
2018-01-20T02:02:58.804Z,20.17
2018-01-20T02:05:39.760Z,21.70
2018-01-20T02:08:20.346Z,24.90
2018-01-20T02:10:52.081Z,23.77
2018-01-20T02:13:22.009Z,28.77
2018-01-20T02:15:50.157Z,30.97
2018-01-20T02:18:24.701Z,24.83
2018-01-20T02:20:52.802Z,27.87
2018-01-20T02:23:29.348Z,29.17
2018-01-20T02:25:57.458Z,23.83
2018-01-20T02:31:37.473Z,26.83
2018-01-20T02:34:25.477Z,30.50
2018-01-20T02:36:54.352Z,26.87
2018-01-20T02:39:30.766Z,30.90
2018-01-20T02:42:23.961Z,29.80
2018-01-20T02:44:52.069Z,31.57
2018-01-20T02:47:20.209Z,29.10
2018-01-20T02:50:00.804Z,29.37
2018-01-20T02:52:29.844Z,27.27
2018-01-20T02:54:58.990Z,26.77
2018-01-20T02:57:32.860Z,25.50
2018-01-20T03:00:00.975Z,27.50
2018-01-20T03:02:37.308Z,25.40
2018-01-20T03:05:12.542Z,29.50
2018-01-20T03:07:41.585Z,31.37
2018-01-20T03:10:09.699Z,30.87
2018-01-20T03:12:37.792Z,28.50
2018-01-20T03:15:06.685Z,27.50
2018-01-20T03:17:35.630Z,30.70
2018-01-20T03:20:03.864Z,26.73
2018-01-20T03:22:31.974Z,29.20
2018-01-20T03:25:00.997Z,30.97
2018-01-20T03:30:38.922Z,30.00
2018-01-20T03:33:07.810Z,27.43
2018-01-20T03:35:35.951Z,27.37
2018-01-20T03:38:05.001Z,31.10
2018-01-20T03:40:33.119Z,27.90
2018-01-20T03:43:01.249Z,28.87
2018-01-20T03:45:29.367Z,27.03
2018-01-20T03:47:57.496Z,32.47
2018-01-20T03:50:25.632Z,28.67
2018-01-20T03:53:07.221Z,29.97
2018-01-20T03:55:35.329Z,26.10
2018-01-20T03:58:04.208Z,27.93
2018-01-20T04:00:32.324Z,26.87
2018-01-20T04:03:04.737Z,27.00
2018-01-20T04:05:32.840Z,28.87
2018-01-20T04:08:00.961Z,27.60
2018-01-20T04:10:29.065Z,26.90
2018-01-20T04:12:57.219Z,28.70
2018-01-20T04:15:25.317Z,26.37
2018-01-20T04:17:53.442Z,26.93
2018-01-20T04:20:21.561Z,28.10
2018-01-20T04:22:49.656Z,29.70
2018-01-20T04:25:17.778Z,30.60
2018-01-20T04:27:45.880Z,22.73
2018-01-20T04:30:14.019Z,25.70
2018-01-20T04:32:50.225Z,27.60
2018-01-20T04:35:22.237Z,25.47
2018-01-20T04:38:00.631Z,25.97
2018-01-20T04:40:28.753Z,25.00
2018-01-20T04:43:01.953Z,22.37
2018-01-20T04:45:44.286Z,23.07
2018-01-20T04:48:12.418Z,26.30
2018-01-20T04:50:40.533Z,24.00
2018-01-20T04:53:08.647Z,29.33
2018-01-20T04:55:37.691Z,26.37
2018-01-20T04:58:05.823Z,27.50
2018-01-20T05:00:33.944Z,25.23
2018-01-20T05:03:25.372Z,31.03
2018-01-20T05:05:55.236Z,27.53
2018-01-20T05:08:24.257Z,24.43
2018-01-20T05:10:52.364Z,28.70
2018-01-20T05:13:26.333Z,27.57
2018-01-20T05:15:55.360Z,29.30
2018-01-20T05:18:25.435Z,30.70
2018-01-20T05:20:53.521Z,24.70
2018-01-20T05:23:24.348Z,27.80
2018-01-20T05:25:52.513Z,27.97
2018-01-20T05:31:20.312Z,25.33
2018-01-20T05:33:54.066Z,29.30
2018-01-20T05:36:22.209Z,33.27
2018-01-20T05:38:52.036Z,27.60
2018-01-20T05:41:20.140Z,31.37
2018-01-20T05:43:48.250Z,26.83
2018-01-20T05:52:20.548Z,29.53
2018-01-20T05:54:48.665Z,27.43
2018-01-20T05:57:16.776Z,27.40
2018-01-20T05:59:59.185Z,28.20
2018-01-20T06:02:27.295Z,29.10
2018-01-20T06:04:56.197Z,31.73
2018-01-20T06:07:24.313Z,32.20
2018-01-20T06:09:52.413Z,29.20
2018-01-20T06:12:32.457Z,27.27
2018-01-20T06:15:05.981Z,29.40
2018-01-20T06:17:55.740Z,29.70
2018-01-20T06:20:24.630Z,23.13
2018-01-20T06:22:52.740Z,28.63
2018-01-20T06:25:22.838Z,29.47
2018-01-20T06:27:50.934Z,26.97
2018-01-20T06:30:21.734Z,29.10
2018-01-20T06:33:01.659Z,25.93
2018-01-20T06:35:29.773Z,27.73
2018-01-20T06:37:59.619Z,28.23
2018-01-20T06:40:27.741Z,27.17
2018-01-20T06:42:55.876Z,28.23
2018-01-20T06:45:38.948Z,24.97
2018-01-20T06:48:07.064Z,28.40
2018-01-20T06:50:36.101Z,24.13
2018-01-20T06:53:04.253Z,26.90
2018-01-20T06:55:45.917Z,28.83
2018-01-20T06:58:14.033Z,25.87
2018-01-20T07:00:42.156Z,24.73
2018-01-20T07:03:11.043Z,28.03
2018-01-20T07:05:39.182Z,23.07
2018-01-20T07:08:20.915Z,24.60
2018-01-20T07:11:01.833Z,24.37
2018-01-20T07:13:29.901Z,23.50
2018-01-20T07:16:03.765Z,25.90
2018-01-20T07:18:31.913Z,22.37
2018-01-20T07:21:00.054Z,26.17
2018-01-20T07:23:28.937Z,24.73
2018-01-20T07:29:15.098Z,23.50
2018-01-20T07:31:48.248Z,21.80
2018-01-20T07:34:17.338Z,24.97
2018-01-20T07:36:45.448Z,23.33
2018-01-20T07:39:13.564Z,23.13
2018-01-20T07:41:43.682Z,24.07
2018-01-20T07:44:20.023Z,22.70
2018-01-20T07:46:53.798Z,24.60
2018-01-20T07:49:21.868Z,26.73
2018-01-20T07:51:54.629Z,25.00
2018-01-20T07:57:27.928Z,19.27
2018-01-20T07:59:56.844Z,24.80
2018-01-20T08:02:29.817Z,22.90
2018-01-20T08:04:58.693Z,20.47
2018-01-20T08:07:35.012Z,23.77
2018-01-20T08:10:09.709Z,24.40
2018-01-20T08:12:48.580Z,20.13
2018-01-20T08:15:16.713Z,23.80
2018-01-20T08:17:44.832Z,26.90
2018-01-20T08:20:12.933Z,25.50
2018-01-20T08:22:58.419Z,23.33
2018-01-20T08:25:26.671Z,24.33
2018-01-20T08:28:11.690Z,24.77
2018-01-20T08:31:00.807Z,26.73
2018-01-20T08:33:42.222Z,25.20
2018-01-20T08:36:10.355Z,28.43
2018-01-20T08:39:04.318Z,22.73
2018-01-20T08:41:37.134Z,25.23
2018-01-20T08:44:05.420Z,21.93
2018-01-20T08:46:33.580Z,21.90
2018-01-20T08:49:01.707Z,23.67
2018-01-20T08:51:30.687Z,22.63
2018-01-20T08:53:58.834Z,22.23
2018-01-20T08:56:31.043Z,25.33
2018-01-20T08:59:02.996Z,22.37
2018-01-20T09:01:31.937Z,22.77
2018-01-20T09:04:08.066Z,24.47
2018-01-20T09:06:36.185Z,26.57
2018-01-20T09:09:06.443Z,24.83
2018-01-20T09:11:34.585Z,21.67
2018-01-20T09:14:08.427Z,23.00
2018-01-20T09:16:36.737Z,24.57
2018-01-20T09:19:05.399Z,21.03
2018-01-20T09:21:42.281Z,26.97
2018-01-20T09:24:11.417Z,20.83
2018-01-20T09:26:39.522Z,21.63
2018-01-20T09:29:19.087Z,24.10
2018-01-20T09:31:47.978Z,20.53
2018-01-20T09:34:29.117Z,21.93
2018-01-20T09:36:57.245Z,16.43
2018-01-20T09:39:28.057Z,19.13
2018-01-20T09:41:56.220Z,18.33
2018-01-20T09:44:24.339Z,16.27
2018-01-20T09:46:52.488Z,18.27
2018-01-20T09:49:28.153Z,18.40
2018-01-20T09:51:56.311Z,14.10
2018-01-20T09:54:30.622Z,15.63
2018-01-20T09:56:58.747Z,16.10
2018-01-20T09:59:27.798Z,18.03
2018-01-20T10:01:56.912Z,17.80
2018-01-20T10:04:25.064Z,19.70
2018-01-20T10:06:53.187Z,15.87
2018-01-20T10:09:26.347Z,17.43
2018-01-20T10:11:54.464Z,19.80
2018-01-20T10:14:27.572Z,21.33
2018-01-20T10:16:55.705Z,17.60
2018-01-20T10:19:23.799Z,19.30
2018-01-20T10:21:51.901Z,17.10
2018-01-20T10:24:21.009Z,15.03
2018-01-20T10:26:56.368Z,15.13
2018-01-20T10:29:24.495Z,16.40
2018-01-20T10:31:53.408Z,14.73
2018-01-20T10:34:21.534Z,15.13
2018-01-20T10:36:49.688Z,14.83
2018-01-20T10:39:17.793Z,18.60
2018-01-20T10:41:45.936Z,17.27
2018-01-20T10:44:15.947Z,17.07
2018-01-20T10:46:50.753Z,17.33
2018-01-20T10:49:18.900Z,16.57
2018-01-20T10:51:47.062Z,18.60
2018-01-20T10:54:18.792Z,16.00
2018-01-20T10:56:46.886Z,19.50
2018-01-20T10:59:14.993Z,19.60
2018-01-20T11:01:43.868Z,17.20
2018-01-20T11:04:25.588Z,20.77
2018-01-20T11:06:59.707Z,21.17
2018-01-20T11:09:27.852Z,16.23
2018-01-20T11:11:55.979Z,17.50
2018-01-20T11:14:25.096Z,19.43
2018-01-20T11:16:56.992Z,18.37
2018-01-20T11:19:25.931Z,19.53
2018-01-20T11:21:54.936Z,16.93
2018-01-20T11:24:26.306Z,19.63
2018-01-20T11:26:58.835Z,15.53
2018-01-20T11:29:27.898Z,17.90
2018-01-20T11:31:57.002Z,18.30
2018-01-20T11:34:26.217Z,18.30
2018-01-20T11:36:56.351Z,17.23
2018-01-20T11:39:24.459Z,17.40
2018-01-20T11:41:52.594Z,14.83
2018-01-20T11:44:22.677Z,17.20
2018-01-20T11:46:52.400Z,18.37
2018-01-20T11:49:21.321Z,17.07
2018-01-20T11:51:54.173Z,17.17
2018-01-20T11:54:22.441Z,17.07
2018-01-20T11:56:56.265Z,17.13
2018-01-20T11:59:25.285Z,16.00
2018-01-20T12:01:56.437Z,16.53
2018-01-20T12:04:25.541Z,14.10
2018-01-20T12:06:53.671Z,17.33
2018-01-20T12:09:23.790Z,17.63
2018-01-20T12:11:51.886Z,19.20
2018-01-20T12:14:23.303Z,17.47
2018-01-20T12:17:09.481Z,19.13
2018-01-20T12:19:41.751Z,23.17
2018-01-20T12:22:12.524Z,17.80
2018-01-20T12:24:43.727Z,19.60
2018-01-20T12:27:11.867Z,18.20
2018-01-20T12:29:44.254Z,22.33
2018-01-20T12:32:13.118Z,26.50
2018-01-20T12:34:41.222Z,17.33
2018-01-20T12:37:11.101Z,19.23
2018-01-20T12:39:43.673Z,17.00
2018-01-20T12:42:13.114Z,17.33
2018-01-20T12:44:45.379Z,18.03
2018-01-20T12:47:13.571Z,20.87
2018-01-20T12:49:42.783Z,24.00
2018-01-20T12:52:11.007Z,18.07
2018-01-20T12:54:41.096Z,18.23
2018-01-20T12:57:10.235Z,17.30
2018-01-20T12:59:39.365Z,38.60
2018-01-20T13:02:07.524Z,16.23
2018-01-20T13:04:35.654Z,17.17
2018-01-20T13:07:04.804Z,18.23
2018-01-20T13:09:32.936Z,17.67
2018-01-20T13:12:01.017Z,18.63
2018-01-20T13:14:29.877Z,17.47
2018-01-20T13:17:01.435Z,16.53
2018-01-20T13:19:40.927Z,17.63
2018-01-20T13:22:09.077Z,22.50
2018-01-20T13:24:37.209Z,18.33
2018-01-20T13:27:06.271Z,18.30
2018-01-20T13:29:35.225Z,17.70
2018-01-20T13:32:03.458Z,20.40
2018-01-20T13:34:37.605Z,19.37
2018-01-20T13:37:24.316Z,17.70
2018-01-20T13:39:52.432Z,16.20
2018-01-20T13:42:20.569Z,16.60
2018-01-20T13:44:48.785Z,14.93
2018-01-20T13:47:17.853Z,15.83
2018-01-20T13:49:50.929Z,19.90
2018-01-20T13:52:19.101Z,18.30
2018-01-20T13:54:47.234Z,22.60
2018-01-20T13:57:17.252Z,17.40
2018-01-20T13:59:45.361Z,19.13
2018-01-20T14:02:15.537Z,22.67
2018-01-20T14:04:44.585Z,22.30
2018-01-20T14:07:16.186Z,22.10
2018-01-20T14:09:45.051Z,18.40
2018-01-20T14:12:13.197Z,20.33
2018-01-20T14:14:42.209Z,21.83
2018-01-20T14:17:10.448Z,20.03
2018-01-20T14:19:42.227Z,19.60
2018-01-20T14:22:11.326Z,20.47
2018-01-20T14:24:39.494Z,19.33
2018-01-20T14:27:07.661Z,21.87
2018-01-20T14:29:36.850Z,23.50
2018-01-20T14:32:07.002Z,20.97
2018-01-20T14:34:35.108Z,21.60
2018-01-20T14:37:05.176Z,22.23
2018-01-20T14:39:33.273Z,24.20
2018-01-20T14:42:04.598Z,22.87
2018-01-20T14:44:32.693Z,23.60
2018-01-20T14:47:07.064Z,22.13
2018-01-20T14:49:36.174Z,23.20
2018-01-20T14:52:04.290Z,19.93
2018-01-20T14:54:38.082Z,22.33
2018-01-20T14:57:08.105Z,21.97
2018-01-20T14:59:41.969Z,23.63
2018-01-20T15:02:10.089Z,23.87
2018-01-20T15:04:38.963Z,19.83
2018-01-20T15:07:07.070Z,24.30
2018-01-20T15:09:35.209Z,20.00
2018-01-20T15:12:03.400Z,21.03
2018-01-20T15:14:31.598Z,21.57
2018-01-20T15:16:59.742Z,26.77
2018-01-20T15:19:27.891Z,19.20
2018-01-20T15:22:02.982Z,24.90
2018-01-20T15:24:31.901Z,20.90
2018-01-20T15:27:00.023Z,21.00
2018-01-20T15:29:29.123Z,22.10
2018-01-20T15:32:00.600Z,23.43
2018-01-20T15:34:28.740Z,20.20
2018-01-20T15:36:57.990Z,24.73
2018-01-20T15:39:30.948Z,20.70
2018-01-20T15:41:59.092Z,22.87
2018-01-20T15:44:27.236Z,26.87
2018-01-20T15:46:55.332Z,23.07
2018-01-20T15:49:29.441Z,28.43
2018-01-20T15:52:01.521Z,20.57
2018-01-20T15:54:30.349Z,26.37
2018-01-20T15:57:00.381Z,23.07
2018-01-20T15:59:30.502Z,22.10
2018-01-20T16:02:17.465Z,22.40
2018-01-20T16:04:46.413Z,21.27
2018-01-20T16:07:25.684Z,24.50
2018-01-20T16:09:58.924Z,26.60
2018-01-20T16:12:32.171Z,22.00
2018-01-20T16:15:00.286Z,21.83
2018-01-20T16:17:34.681Z,23.33
2018-01-20T16:20:09.972Z,20.53
2018-01-20T16:22:38.877Z,21.07
2018-01-20T16:25:07.768Z,21.10
2018-01-20T16:27:35.873Z,20.80
2018-01-20T16:30:08.581Z,22.07
2018-01-20T16:32:38.634Z,25.37
2018-01-20T16:35:06.798Z,18.50
2018-01-20T16:37:35.660Z,18.70
2018-01-20T16:40:03.766Z,20.97
2018-01-20T16:42:37.817Z,21.67
2018-01-20T16:45:06.931Z,21.63
2018-01-20T16:47:35.028Z,24.07
2018-01-20T16:50:03.245Z,24.00
2018-01-20T16:52:32.730Z,20.77
2018-01-20T16:55:01.932Z,23.10
2018-01-20T16:57:30.979Z,21.07
2018-01-20T17:00:00.063Z,24.17
2018-01-20T17:02:28.173Z,26.27
2018-01-20T17:04:57.313Z,19.93
2018-01-20T17:07:25.404Z,19.57
2018-01-20T17:09:58.074Z,24.70
2018-01-20T17:12:31.176Z,22.20
2018-01-20T17:14:59.341Z,29.20
2018-01-20T17:17:28.434Z,19.53
2018-01-20T17:20:03.114Z,27.60
2018-01-20T17:22:31.210Z,26.93
2018-01-20T17:25:01.478Z,24.43
2018-01-20T17:27:31.490Z,24.50
2018-01-20T17:30:01.559Z,23.90
2018-01-20T17:32:29.757Z,23.77
2018-01-20T17:37:52.989Z,24.60
2018-01-20T17:40:22.087Z,27.30
2018-01-20T17:42:54.810Z,23.10
2018-01-20T17:45:35.177Z,21.63
2018-01-20T17:48:03.283Z,22.27
2018-01-20T17:50:37.147Z,23.50
2018-01-20T17:53:07.315Z,24.77
2018-01-20T17:55:41.721Z,24.40
2018-01-20T17:58:11.812Z,23.73
2018-01-20T18:01:01.165Z,20.80
2018-01-20T18:03:35.023Z,25.97
2018-01-20T18:06:05.601Z,24.17
2018-01-20T18:08:34.646Z,24.80
2018-01-20T18:11:04.715Z,22.17
2018-01-20T18:13:36.888Z,23.57
2018-01-20T18:16:17.339Z,21.70
2018-01-20T18:18:45.424Z,21.70
2018-01-20T18:21:13.549Z,20.47
2018-01-20T18:23:46.821Z,23.90
2018-01-20T18:26:16.918Z,23.03
2018-01-20T18:28:46.045Z,22.77
2018-01-20T18:31:14.225Z,24.40
2018-01-20T18:33:42.425Z,21.73
2018-01-20T18:36:12.617Z,22.70
2018-01-20T18:38:42.124Z,21.77
2018-01-20T18:41:19.529Z,23.13
2018-01-20T18:43:47.734Z,19.23
2018-01-20T18:46:17.795Z,22.60
2018-01-20T18:48:45.905Z,21.40
2018-01-20T18:54:15.671Z,21.27
2018-01-20T18:56:43.776Z,25.73
2018-01-20T18:59:11.952Z,24.90
2018-01-20T19:01:56.412Z,21.70
2018-01-20T19:04:27.192Z,23.50
2018-01-20T19:06:59.692Z,25.93
2018-01-20T19:09:27.798Z,23.37
2018-01-20T19:11:59.138Z,24.67
2018-01-20T19:14:27.285Z,27.03
2018-01-20T19:17:00.445Z,21.97
2018-01-20T19:19:28.544Z,23.10
2018-01-20T19:21:57.664Z,21.83
2018-01-20T19:24:25.755Z,27.43
2018-01-20T19:27:06.528Z,22.83
2018-01-20T19:29:34.749Z,24.20
2018-01-20T19:32:07.363Z,22.00
2018-01-20T19:34:45.957Z,21.70
2018-01-20T19:37:16.777Z,27.83
2018-01-20T19:39:44.936Z,28.10
2018-01-20T19:42:14.960Z,25.93
2018-01-20T19:45:02.012Z,24.97
2018-01-20T19:50:35.822Z,21.57
2018-01-20T19:53:03.957Z,28.30
2018-01-20T19:55:35.700Z,23.70
2018-01-20T19:58:27.582Z,25.10
2018-01-20T20:01:02.926Z,23.83
2018-01-20T20:03:35.093Z,24.10
2018-01-20T20:06:11.522Z,24.80
2018-01-20T20:08:44.649Z,28.97
2018-01-20T20:11:13.734Z,24.33
2018-01-20T20:13:55.752Z,25.47
2018-01-20T20:16:23.884Z,28.07
2018-01-20T20:18:58.630Z,27.50
2018-01-20T20:21:26.775Z,27.50
2018-01-20T20:23:54.924Z,21.13
2018-01-20T20:26:27.749Z,28.70
2018-01-20T20:28:59.631Z,22.17
2018-01-20T20:31:27.723Z,29.93
2018-01-20T20:33:57.780Z,28.40
2018-01-20T20:36:50.776Z,26.40
2018-01-20T20:39:19.694Z,27.07
2018-01-20T20:41:52.622Z,27.10
2018-01-20T20:44:20.769Z,27.17
2018-01-20T20:46:49.801Z,29.83
2018-01-20T20:49:24.020Z,23.80
2018-01-20T20:51:52.230Z,26.77
2018-01-20T20:54:20.371Z,28.33
2018-01-20T20:59:42.533Z,29.30
2018-01-20T21:02:10.645Z,28.60
2018-01-20T21:04:43.772Z,29.83
2018-01-20T21:07:12.897Z,29.47
2018-01-20T21:09:40.996Z,29.20
2018-01-20T21:12:12.128Z,26.87
2018-01-20T21:14:40.225Z,23.67
2018-01-20T21:17:10.993Z,24.83
2018-01-20T21:19:40.707Z,29.87
2018-01-20T21:22:12.040Z,29.20
2018-01-20T21:24:40.255Z,28.83
2018-01-20T21:27:09.328Z,30.00
2018-01-20T21:29:37.433Z,27.30
2018-01-20T21:32:05.540Z,29.27
2018-01-20T21:34:41.108Z,31.50
2018-01-20T21:37:11.914Z,26.53
2018-01-20T21:39:40.975Z,27.37
2018-01-20T21:42:09.137Z,24.83
2018-01-20T21:44:44.296Z,29.23
2018-01-20T21:47:20.068Z,30.63
2018-01-20T21:49:48.229Z,27.40
2018-01-20T21:52:16.313Z,27.53
2018-01-20T21:54:45.389Z,26.67
2018-01-20T21:57:14.632Z,25.30
2018-01-20T21:59:49.784Z,24.23
2018-01-20T22:02:17.995Z,25.30
2018-01-20T22:04:46.176Z,27.53
2018-01-20T22:07:16.949Z,29.63
2018-01-20T22:09:45.973Z,29.30
2018-01-20T22:12:14.085Z,24.77
2018-01-20T22:14:46.225Z,24.60
2018-01-20T22:17:16.290Z,24.97
2018-01-20T22:19:45.353Z,25.60
2018-01-20T22:22:14.317Z,28.57
2018-01-20T22:24:42.446Z,28.33
2018-01-20T22:27:11.492Z,27.50
2018-01-20T22:29:43.015Z,26.73
2018-01-20T22:32:13.063Z,27.10
2018-01-20T22:34:46.776Z,27.50
2018-01-20T22:37:14.889Z,25.37
2018-01-20T22:39:47.577Z,31.40
2018-01-20T22:42:21.254Z,26.73
2018-01-20T22:44:53.053Z,29.77
2018-01-20T22:47:21.175Z,27.10
2018-01-20T22:49:51.957Z,27.70
2018-01-20T22:52:20.072Z,27.23
2018-01-20T22:54:51.640Z,33.70
2018-01-20T22:57:32.153Z,26.13
2018-01-20T23:00:01.994Z,30.27
2018-01-20T23:02:43.533Z,28.17
2018-01-20T23:05:11.637Z,28.83
2018-01-20T23:07:49.778Z,24.07
2018-01-20T23:10:28.437Z,30.53
2018-01-20T23:12:57.592Z,27.23
2018-01-20T23:15:26.685Z,26.03
2018-01-20T23:17:54.780Z,24.67
2018-01-20T23:20:22.881Z,23.80
2018-01-20T23:22:57.748Z,25.87
2018-01-20T23:25:25.871Z,26.50
2018-01-20T23:27:53.989Z,27.00
2018-01-20T23:30:27.823Z,27.30
2018-01-20T23:32:55.964Z,24.30
2018-01-20T23:35:24.149Z,28.10
2018-01-20T23:37:53.273Z,26.90
2018-01-20T23:40:21.364Z,25.23
2018-01-20T23:42:49.466Z,26.83
2018-01-20T23:45:18.406Z,27.47
2018-01-20T23:47:52.462Z,27.47
2018-01-20T23:50:25.332Z,24.03
2018-01-20T23:52:53.507Z,26.97
2018-01-20T23:55:21.638Z,27.37
2018-01-20T23:57:54.323Z,28.30
